Time;durP1;ratioP1;P1;durP2;ratioP2;P2;SDS_P1;SDS_P2;PMS_P1;PMS_P2;Temp;Humidity;BMP_temperature;BMP_pressure;BME280_temperature;BME280_humidity;BME280_pressure;Samples;Min_cycle;Max_cycle;Signal;HPM_P1;HPM_P2
2023/07/06 00:00:47;;;;;;;3.00;3.00;;;;;;;;;;5049947;28;20449;-70
2023/07/06 00:03:14;;;;;;;3.20;3.00;;;;;;;;;;5032295;28;20431;-71
2023/07/06 00:05:44;;;;;;;7.30;3.30;;;;;;;;;;5037052;28;20761;-71
2023/07/06 00:08:11;;;;;;;2.50;2.40;;;;;;;;;;5037165;28;20439;-71
2023/07/06 00:10:39;;;;;;;2.80;2.70;;;;;;;;;;5032992;28;20996;-71
2023/07/06 00:13:05;;;;;;;5.10;2.77;;;;;;;;;;5033997;28;20470;-71
2023/07/06 00:15:33;;;;;;;2.90;2.80;;;;;;;;;;5032638;28;20486;-71
2023/07/06 00:18:02;;;;;;;3.27;3.13;;;;;;;;;;5034202;28;20500;-70
2023/07/06 00:20:29;;;;;;;2.67;2.50;;;;;;;;;;5033050;28;21117;-71
2023/07/06 00:22:55;;;;;;;2.73;2.63;;;;;;;;;;5032283;28;20530;-71
2023/07/06 00:25:21;;;;;;;2.90;2.60;;;;;;;;;;5033649;28;20437;-71
2023/07/06 00:27:48;;;;;;;3.33;3.23;;;;;;;;;;5032615;28;20450;-71
2023/07/06 00:30:15;;;;;;;4.17;2.50;;;;;;;;;;5032184;28;20443;-71
2023/07/06 00:32:44;;;;;;;2.57;2.47;;;;;;;;;;5032500;28;20443;-71
2023/07/06 00:35:10;;;;;;;2.47;2.37;;;;;;;;;;5032666;28;20443;-71
2023/07/06 00:37:38;;;;;;;6.63;3.20;;;;;;;;;;5032812;28;20798;-71
2023/07/06 00:40:08;;;;;;;3.23;2.60;;;;;;;;;;5037895;28;20839;-70
2023/07/06 00:42:34;;;;;;;2.60;2.50;;;;;;;;;;5039895;28;20443;-71
2023/07/06 00:45:01;;;;;;;2.60;2.50;;;;;;;;;;5031756;28;20557;-70
2023/07/06 00:47:36;;;;;;;2.70;2.60;;;;;;;;;;5032156;28;20443;-71
2023/07/06 00:50:08;;;;;;;2.50;2.40;;;;;;;;;;5031866;28;20462;-71
2023/07/06 00:52:36;;;;;;;2.47;2.47;;;;;;;;;;5031613;28;21013;-71
2023/07/06 00:55:03;;;;;;;3.77;2.80;;;;;;;;;;5031089;28;20467;-71
2023/07/06 00:57:30;;;;;;;2.30;2.27;;;;;;;;;;5035262;28;20457;-71
2023/07/06 00:59:56;;;;;;;2.83;2.73;;;;;;;;;;5036856;28;20498;-71
2023/07/06 01:02:22;;;;;;;2.60;2.40;;;;;;;;;;5032151;28;20416;-70
2023/07/06 01:04:48;;;;;;;3.87;2.73;;;;;;;;;;5036889;28;20509;-71
2023/07/06 01:07:18;;;;;;;3.00;2.90;;;;;;;;;;5032235;28;20431;-70
2023/07/06 01:09:44;;;;;;;2.40;2.30;;;;;;;;;;5031431;28;20453;-70
2023/07/06 01:12:11;;;;;;;3.40;3.30;;;;;;;;;;5034858;28;20439;-71
2023/07/06 01:14:37;;;;;;;2.70;2.50;;;;;;;;;;5034096;28;20540;-71
2023/07/06 01:17:07;;;;;;;2.77;2.60;;;;;;;;;;5032259;28;20481;-71
2023/07/06 01:19:54;;;;;;;2.93;2.63;;;;;;;;;;5032212;28;20486;-71
2023/07/06 01:22:32;;;;;;;2.60;2.50;;;;;;;;;;5027430;28;20439;-71
2023/07/06 01:25:16;;;;;;;6.77;2.80;;;;;;;;;;5035125;28;20447;-71
2023/07/06 01:28:05;;;;;;;3.00;2.80;;;;;;;;;;5034275;28;20446;-71
2023/07/06 01:30:34;;;;;;;4.73;2.90;;;;;;;;;;5038157;28;20445;-71
2023/07/06 01:33:04;;;;;;;3.17;2.97;;;;;;;;;;5031689;28;20434;-71
2023/07/06 01:35:37;;;;;;;2.43;2.33;;;;;;;;;;5033497;28;20435;-71
2023/07/06 01:38:04;;;;;;;2.57;2.43;;;;;;;;;;5032558;28;20430;-71
2023/07/06 01:40:30;;;;;;;2.27;2.07;;;;;;;;;;5044299;28;20482;-71
2023/07/06 01:42:59;;;;;;;7.40;2.20;;;;;;;;;;5038781;28;20450;-70
2023/07/06 01:45:25;;;;;;;4.10;2.90;;;;;;;;;;5036087;28;20457;-71
2023/07/06 01:47:58;;;;;;;2.97;2.80;;;;;;;;;;5034432;28;20562;-71
2023/07/06 01:50:31;;;;;;;2.47;2.37;;;;;;;;;;5039775;28;20503;-70
2023/07/06 01:53:17;;;;;;;2.77;2.60;;;;;;;;;;5053539;28;20422;-70
2023/07/06 01:55:45;;;;;;;3.07;2.87;;;;;;;;;;5030620;28;20805;-71
2023/07/06 01:58:29;;;;;;;2.33;2.33;;;;;;;;;;5037338;28;21049;-71
2023/07/06 02:00:59;;;;;;;4.10;2.60;;;;;;;;;;5036202;28;20430;-71
2023/07/06 02:03:26;;;;;;;2.30;2.30;;;;;;;;;;5038372;28;20922;-71
2023/07/06 02:05:52;;;;;;;2.73;2.63;;;;;;;;;;5042490;28;20435;-71
2023/07/06 02:08:18;;;;;;;2.80;2.70;;;;;;;;;;5035152;28;20599;-71
2023/07/06 02:10:44;;;;;;;2.10;2.10;;;;;;;;;;5047255;28;20422;-71
2023/07/06 02:13:12;;;;;;;3.10;3.00;;;;;;;;;;5037100;28;20493;-71
2023/07/06 02:15:40;;;;;;;4.60;2.80;;;;;;;;;;5035007;28;20427;-71
2023/07/06 02:18:06;;;;;;;2.67;2.57;;;;;;;;;;5036789;28;20430;-71
2023/07/06 02:20:32;;;;;;;3.30;3.20;;;;;;;;;;5055149;28;20485;-71
2023/07/06 02:22:58;;;;;;;2.73;2.73;;;;;;;;;;5047953;28;20826;-71
2023/07/06 02:25:24;;;;;;;2.67;2.57;;;;;;;;;;5034788;28;20458;-71
2023/07/06 02:27:50;;;;;;;2.77;2.40;;;;;;;;;;5034983;28;20785;-71
2023/07/06 02:30:16;;;;;;;2.97;2.60;;;;;;;;;;5035209;28;20449;-71
2023/07/06 02:32:42;;;;;;;9.90;3.13;;;;;;;;;;5035001;28;20430;-71
2023/07/06 02:35:12;;;;;;;2.97;2.77;;;;;;;;;;5035571;28;20524;-70
2023/07/06 02:37:38;;;;;;;3.80;2.80;;;;;;;;;;5034716;28;20477;-71
2023/07/06 02:40:08;;;;;;;3.87;3.67;;;;;;;;;;5034039;28;20520;-71
2023/07/06 02:42:35;;;;;;;2.67;2.57;;;;;;;;;;5042237;28;20469;-70
2023/07/06 02:45:03;;;;;;;3.20;3.10;;;;;;;;;;5045003;28;20426;-71
2023/07/06 02:47:29;;;;;;;3.20;3.10;;;;;;;;;;5039145;28;20446;-71
2023/07/06 02:49:55;;;;;;;3.67;3.47;;;;;;;;;;5035378;28;20473;-71
2023/07/06 02:52:21;;;;;;;3.27;3.17;;;;;;;;;;5052285;28;20440;-71
2023/07/06 02:54:47;;;;;;;3.20;3.00;;;;;;;;;;5033127;28;20462;-71
2023/07/06 02:57:13;;;;;;;3.40;3.30;;;;;;;;;;5038358;28;20450;-71
2023/07/06 02:59:39;;;;;;;3.70;3.50;;;;;;;;;;5036615;28;20483;-71
2023/07/06 03:02:06;;;;;;;3.03;2.93;;;;;;;;;;5044521;28;20843;-71
2023/07/06 03:04:32;;;;;;;2.83;2.73;;;;;;;;;;5045000;28;20426;-70
2023/07/06 03:06:58;;;;;;;6.50;2.80;;;;;;;;;;5047032;28;20505;-70
2023/07/06 03:09:24;;;;;;;4.17;3.87;;;;;;;;;;5033316;28;20435;-71
2023/07/06 03:11:52;;;;;;;3.50;3.40;;;;;;;;;;5038574;28;20911;-70
2023/07/06 03:14:21;;;;;;;3.60;3.20;;;;;;;;;;5033987;28;20465;-70
2023/07/06 03:16:47;;;;;;;2.90;2.90;;;;;;;;;;5052441;28;20457;-71
2023/07/06 03:19:13;;;;;;;3.60;3.40;;;;;;;;;;5026078;28;21000;-71
2023/07/06 03:21:39;;;;;;;3.43;3.33;;;;;;;;;;5051728;28;20560;-71
2023/07/06 03:24:08;;;;;;;3.37;3.27;;;;;;;;;;5020677;28;20428;-70
2023/07/06 03:26:35;;;;;;;3.37;3.07;;;;;;;;;;5032967;28;20840;-71
2023/07/06 03:29:03;;;;;;;3.90;3.80;;;;;;;;;;5033917;28;20472;-71
2023/07/06 03:31:29;;;;;;;2.50;2.40;;;;;;;;;;5036638;28;20431;-71
2023/07/06 03:33:56;;;;;;;4.67;3.37;;;;;;;;;;5015818;28;20530;-70
2023/07/06 03:36:22;;;;;;;7.03;4.30;;;;;;;;;;5017527;28;20955;-71
2023/07/06 03:38:49;;;;;;;6.03;4.50;;;;;;;;;;5035725;28;20474;-71
2023/07/06 03:41:16;;;;;;;2.93;2.93;;;;;;;;;;5022046;28;20522;-70
2023/07/06 03:43:42;;;;;;;3.03;2.90;;;;;;;;;;5034151;28;20423;-71
2023/07/06 03:46:09;;;;;;;4.00;3.70;;;;;;;;;;5034501;28;20448;-70
2023/07/06 03:48:35;;;;;;;3.63;3.53;;;;;;;;;;5024535;28;20687;-71
2023/07/06 03:51:03;;;;;;;4.07;3.30;;;;;;;;;;5035434;28;20935;-71
2023/07/06 03:53:29;;;;;;;3.30;3.20;;;;;;;;;;5041956;28;20451;-71
2023/07/06 03:55:55;;;;;;;2.73;2.73;;;;;;;;;;5033440;28;20497;-70
2023/07/06 03:58:21;;;;;;;3.70;3.50;;;;;;;;;;5036750;28;20926;-71
2023/07/06 04:00:48;;;;;;;3.43;3.23;;;;;;;;;;5033958;28;20485;-70
2023/07/06 04:03:14;;;;;;;2.97;2.77;;;;;;;;;;5031947;28;20916;-70
2023/07/06 04:05:44;;;;;;;3.27;3.17;;;;;;;;;;5042054;28;20534;-71
2023/07/06 04:08:16;;;;;;;3.27;3.17;;;;;;;;;;5033229;28;20765;-70
2023/07/06 04:10:42;;;;;;;8.10;3.63;;;;;;;;;;5032720;28;20981;-70
2023/07/06 04:13:09;;;;;;;3.40;3.10;;;;;;;;;;5033825;28;20923;-71
2023/07/06 04:15:36;;;;;;;3.67;3.57;;;;;;;;;;5013457;28;20562;-70
2023/07/06 04:18:03;;;;;;;4.03;3.83;;;;;;;;;;5012231;28;21038;-70
2023/07/06 04:20:30;;;;;;;4.30;4.00;;;;;;;;;;5021851;28;20490;-71
2023/07/06 04:22:57;;;;;;;3.57;3.40;;;;;;;;;;5016676;28;20923;-71
2023/07/06 04:25:29;;;;;;;3.50;3.30;;;;;;;;;;5019257;28;20468;-71
2023/07/06 04:27:55;;;;;;;3.40;3.10;;;;;;;;;;5028058;28;20408;-71
2023/07/06 04:30:21;;;;;;;2.83;2.73;;;;;;;;;;5031618;28;20916;-70
2023/07/06 04:32:51;;;;;;;2.90;2.80;;;;;;;;;;5022194;28;20432;-70
2023/07/06 04:35:24;;;;;;;4.83;3.20;;;;;;;;;;5026777;28;20455;-70
2023/07/06 04:37:51;;;;;;;10.30;3.30;;;;;;;;;;5030222;28;20455;-70
2023/07/06 04:40:21;;;;;;;3.80;3.60;;;;;;;;;;5031841;28;20486;-70
2023/07/06 04:42:48;;;;;;;4.63;4.30;;;;;;;;;;5039647;28;20438;-70
2023/07/06 04:45:15;;;;;;;2.70;2.60;;;;;;;;;;5043166;28;20467;-70
2023/07/06 04:47:41;;;;;;;3.53;3.43;;;;;;;;;;5037935;28;20434;-70
2023/07/06 04:50:08;;;;;;;3.17;2.97;;;;;;;;;;5046640;28;20885;-70
2023/07/06 04:52:37;;;;;;;3.40;3.30;;;;;;;;;;5028892;28;20447;-70
2023/07/06 04:55:05;;;;;;;2.93;2.83;;;;;;;;;;5038043;28;20419;-71
2023/07/06 04:57:31;;;;;;;3.07;3.07;;;;;;;;;;5040181;28;20439;-71
2023/07/06 04:59:57;;;;;;;3.40;2.90;;;;;;;;;;5029276;28;20517;-70
2023/07/06 05:02:23;;;;;;;2.60;2.50;;;;;;;;;;5034421;28;20455;-70
2023/07/06 05:04:51;;;;;;;3.63;3.27;;;;;;;;;;5029544;28;21031;-70
2023/07/06 05:07:18;;;;;;;3.43;3.33;;;;;;;;;;5030287;28;20437;-70
2023/07/06 05:09:44;;;;;;;3.43;2.97;;;;;;;;;;5044326;28;20455;-70
2023/07/06 05:12:10;;;;;;;3.43;3.33;;;;;;;;;;5032156;28;20915;-70
2023/07/06 05:14:36;;;;;;;3.57;3.33;;;;;;;;;;5035305;28;20450;-71
2023/07/06 05:17:02;;;;;;;4.53;3.90;;;;;;;;;;5035963;28;20411;-70
2023/07/06 05:19:29;;;;;;;3.80;3.57;;;;;;;;;;5019476;28;20482;-70
2023/07/06 05:21:55;;;;;;;3.70;3.10;;;;;;;;;;5016985;28;20430;-70
2023/07/06 05:24:21;;;;;;;4.27;4.07;;;;;;;;;;5032736;28;20994;-71
2023/07/06 05:26:47;;;;;;;3.80;3.27;;;;;;;;;;5032619;28;20444;-71
2023/07/06 05:29:14;;;;;;;2.57;2.53;;;;;;;;;;5043230;28;20453;-70
2023/07/06 05:31:40;;;;;;;4.27;3.57;;;;;;;;;;5036245;28;20416;-71
2023/07/06 05:34:08;;;;;;;4.10;3.90;;;;;;;;;;5034232;28;20457;-70
2023/07/06 05:36:36;;;;;;;5.20;3.90;;;;;;;;;;5036542;28;20422;-70
2023/07/06 05:39:02;;;;;;;4.00;3.70;;;;;;;;;;5048998;28;20485;-71
2023/07/06 05:41:28;;;;;;;3.63;3.43;;;;;;;;;;5035328;28;20435;-71
2023/07/06 05:43:54;;;;;;;3.33;3.10;;;;;;;;;;5043135;28;20480;-64
2023/07/06 05:46:20;;;;;;;4.10;3.57;;;;;;;;;;5038450;28;20203;-64
2023/07/06 05:48:46;;;;;;;3.90;3.70;;;;;;;;;;5038826;28;20498;-64
2023/07/06 05:51:12;;;;;;;8.73;4.03;;;;;;;;;;5039968;28;20458;-65
2023/07/06 05:53:38;;;;;;;3.43;3.23;;;;;;;;;;5049657;28;20513;-65
2023/07/06 05:56:05;;;;;;;9.77;4.00;;;;;;;;;;5036692;28;20451;-65
2023/07/06 05:58:31;;;;;;;6.20;3.40;;;;;;;;;;5031797;28;20431;-65
2023/07/06 06:00:59;;;;;;;3.37;3.17;;;;;;;;;;5045519;28;20442;-65
2023/07/06 06:03:25;;;;;;;3.10;3.00;;;;;;;;;;5030776;28;20897;-64
2023/07/06 06:05:53;;;;;;;2.87;2.80;;;;;;;;;;5031872;28;20478;-64
2023/07/06 06:08:19;;;;;;;3.40;3.10;;;;;;;;;;5031140;28;20505;-63
2023/07/06 06:10:45;;;;;;;3.30;2.97;;;;;;;;;;5032567;28;20478;-65
2023/07/06 06:13:11;;;;;;;5.23;4.03;;;;;;;;;;5031399;28;20493;-65
2023/07/06 06:15:37;;;;;;;3.50;3.40;;;;;;;;;;5031465;28;20447;-64
2023/07/06 06:18:04;;;;;;;3.70;3.50;;;;;;;;;;5032209;28;20430;-64
2023/07/06 06:20:30;;;;;;;3.87;3.57;;;;;;;;;;5031260;28;20493;-64
2023/07/06 06:22:57;;;;;;;5.50;4.40;;;;;;;;;;5030921;28;20443;-64
2023/07/06 06:25:23;;;;;;;6.73;6.13;;;;;;;;;;5030743;28;20450;-70
2023/07/06 06:27:48;;;;;;;8.53;3.87;;;;;;;;;;5031496;28;20446;-70
2023/07/06 06:30:15;;;;;;;4.03;3.83;;;;;;;;;;5030861;28;20435;-70
2023/07/06 06:32:41;;;;;;;3.23;3.13;;;;;;;;;;5031317;28;20463;-71
2023/07/06 06:35:21;;;;;;;4.13;3.83;;;;;;;;;;5030578;28;20462;-70
2023/07/06 06:37:47;;;;;;;4.17;3.90;;;;;;;;;;5046062;28;20439;-70
2023/07/06 06:40:14;;;;;;;4.33;3.70;;;;;;;;;;5031827;28;20565;-70
2023/07/06 06:42:40;;;;;;;9.80;4.20;;;;;;;;;;5030545;28;20997;-70
2023/07/06 06:45:07;;;;;;;4.07;3.67;;;;;;;;;;5030752;28;20451;-70
2023/07/06 06:47:33;;;;;;;3.70;3.30;;;;;;;;;;5031954;28;20466;-70
2023/07/06 06:49:59;;;;;;;7.77;3.67;;;;;;;;;;5046918;28;20486;-70
2023/07/06 06:52:28;;;;;;;3.00;2.70;;;;;;;;;;5028865;28;20443;-70
2023/07/06 06:54:54;;;;;;;10.03;2.70;;;;;;;;;;5030230;28;20447;-73
2023/07/06 06:57:21;;;;;;;3.70;3.10;;;;;;;;;;5027946;28;20447;-72
2023/07/06 06:59:47;;;;;;;3.80;3.60;;;;;;;;;;5030583;28;20537;-72
2023/07/06 07:02:14;;;;;;;5.10;3.63;;;;;;;;;;5031343;28;20459;-70
2023/07/06 07:04:40;;;;;;;4.27;3.70;;;;;;;;;;5030570;28;20439;-71
2023/07/06 07:07:06;;;;;;;6.80;4.50;;;;;;;;;;5026538;28;20903;-70
2023/07/06 07:09:32;;;;;;;4.03;3.80;;;;;;;;;;5030859;28;20458;-70
2023/07/06 07:11:58;;;;;;;3.53;3.37;;;;;;;;;;5030714;28;20419;-70
2023/07/06 07:14:24;;;;;;;5.13;4.60;;;;;;;;;;5030546;28;21106;-70
2023/07/06 07:16:50;;;;;;;6.27;3.67;;;;;;;;;;5030653;28;20814;-70
2023/07/06 07:19:16;;;;;;;7.00;3.83;;;;;;;;;;5044848;28;20483;-70
2023/07/06 07:21:42;;;;;;;3.83;3.60;;;;;;;;;;5029685;28;20470;-70
2023/07/06 07:24:11;;;;;;;4.13;3.83;;;;;;;;;;5029823;28;20435;-70
2023/07/06 07:26:37;;;;;;;3.53;3.30;;;;;;;;;;5029736;28;20554;-70
2023/07/06 07:29:04;;;;;;;5.07;3.30;;;;;;;;;;5042937;28;20891;-80
2023/07/06 07:31:30;;;;;;;3.07;2.90;;;;;;;;;;5043204;28;20459;-70
2023/07/06 07:33:56;;;;;;;3.20;3.00;;;;;;;;;;5029233;28;20466;-70
2023/07/06 07:36:22;;;;;;;3.60;3.47;;;;;;;;;;5027417;28;20485;-70
2023/07/06 07:38:49;;;;;;;3.50;3.40;;;;;;;;;;5027452;28;20467;-70
2023/07/06 07:41:18;;;;;;;3.13;2.90;;;;;;;;;;5027702;28;20859;-70
2023/07/06 07:43:46;;;;;;;3.77;2.90;;;;;;;;;;5027618;28;20939;-70
2023/07/06 07:46:12;;;;;;;3.20;3.00;;;;;;;;;;5029046;28;20982;-70
2023/07/06 07:48:45;;;;;;;4.50;2.83;;;;;;;;;;5028925;28;20483;-70
2023/07/06 07:51:12;;;;;;;3.10;2.90;;;;;;;;;;5028125;28;20880;-70
2023/07/06 07:53:39;;;;;;;3.67;3.20;;;;;;;;;;5028395;28;20454;-70
2023/07/06 07:56:05;;;;;;;3.03;2.90;;;;;;;;;;5044195;28;20478;-70
2023/07/06 07:58:33;;;;;;;3.60;3.40;;;;;;;;;;5030069;28;20506;-70
2023/07/06 08:01:00;;;;;;;3.43;3.33;;;;;;;;;;5029632;28;20439;-70
2023/07/06 08:03:27;;;;;;;2.87;2.77;;;;;;;;;;5026706;28;20431;-70
2023/07/06 08:05:56;;;;;;;8.43;3.33;;;;;;;;;;5043193;28;20470;-70
2023/07/06 08:08:23;;;;;;;2.67;2.47;;;;;;;;;;5027589;28;20462;-70
2023/07/06 08:10:50;;;;;;;2.27;2.10;;;;;;;;;;5028141;28;20447;-70
2023/07/06 08:13:17;;;;;;;4.07;2.07;;;;;;;;;;5027396;28;20439;-70
2023/07/06 08:15:46;;;;;;;2.67;2.23;;;;;;;;;;5028353;28;20890;-70
2023/07/06 08:18:13;;;;;;;2.00;1.90;;;;;;;;;;5028981;28;20431;-70
2023/07/06 08:20:39;;;;;;;2.63;2.53;;;;;;;;;;5028463;28;20537;-70
2023/07/06 08:23:06;;;;;;;2.10;2.00;;;;;;;;;;5026370;28;20489;-70
2023/07/06 08:25:42;;;;;;;4.77;2.40;;;;;;;;;;5025350;28;20447;-70
2023/07/06 08:28:09;;;;;;;2.20;2.10;;;;;;;;;;5028169;28;20447;-70
2023/07/06 08:30:35;;;;;;;4.57;1.77;;;;;;;;;;5025364;28;20451;-70
2023/07/06 08:33:01;;;;;;;2.70;2.37;;;;;;;;;;5028679;28;20435;-70
2023/07/06 08:35:28;;;;;;;1.40;1.40;;;;;;;;;;5027614;28;20429;-70
2023/07/06 08:37:54;;;;;;;1.47;1.47;;;;;;;;;;5042689;28;20478;-71
2023/07/06 08:40:23;;;;;;;3.77;2.30;;;;;;;;;;5028382;28;20494;-70
2023/07/06 08:42:49;;;;;;;2.00;1.90;;;;;;;;;;5023502;28;20447;-70
2023/07/06 08:45:20;;;;;;;2.30;1.50;;;;;;;;;;5027974;28;20457;-70
2023/07/06 08:47:47;;;;;;;1.70;1.60;;;;;;;;;;5025937;28;20469;-70
2023/07/06 08:50:15;;;;;;;2.13;2.03;;;;;;;;;;5024824;28;20491;-70
2023/07/06 08:52:41;;;;;;;1.90;1.63;;;;;;;;;;5028227;28;20458;-70
2023/07/06 08:55:13;;;;;;;1.57;1.57;;;;;;;;;;5043946;28;20459;-70
2023/07/06 08:57:39;;;;;;;2.40;1.30;;;;;;;;;;5029988;28;20795;-70
2023/07/06 09:00:11;;;;;;;2.63;2.43;;;;;;;;;;5029105;28;20487;-70
2023/07/06 09:02:37;;;;;;;5.73;1.23;;;;;;;;;;5028348;28;20432;-70
2023/07/06 09:05:08;;;;;;;4.50;3.07;;;;;;;;;;5028449;28;20431;-69
2023/07/06 09:07:35;;;;;;;1.03;1.03;;;;;;;;;;5028678;28;20427;-69
2023/07/06 09:10:04;;;;;;;1.97;1.70;;;;;;;;;;5029082;28;20478;-69
2023/07/06 09:12:32;;;;;;;2.53;1.50;;;;;;;;;;5027752;28;20779;-70
2023/07/06 09:14:59;;;;;;;1.70;1.70;;;;;;;;;;5027885;28;20797;-70
2023/07/06 09:17:26;;;;;;;2.00;1.43;;;;;;;;;;5029740;28;20443;-69
2023/07/06 09:19:53;;;;;;;1.50;1.40;;;;;;;;;;5028463;28;20490;-70
2023/07/06 09:22:21;;;;;;;2.97;1.80;;;;;;;;;;5027694;28;20443;-70
2023/07/06 09:24:47;;;;;;;1.60;1.60;;;;;;;;;;5026645;28;20450;-70
2023/07/06 09:27:19;;;;;;;3.50;1.70;;;;;;;;;;5028339;28;20431;-69
2023/07/06 09:29:45;;;;;;;1.80;1.60;;;;;;;;;;5028305;28;20797;-68
2023/07/06 09:32:17;;;;;;;1.70;1.53;;;;;;;;;;5029231;28;21049;-71
2023/07/06 09:34:44;;;;;;;2.83;2.63;;;;;;;;;;5027483;28;20447;-70
2023/07/06 09:37:14;;;;;;;1.50;1.50;;;;;;;;;;5028107;28;21705;-70
2023/07/06 09:39:40;;;;;;;3.27;2.00;;;;;;;;;;5028784;28;20545;-70
2023/07/06 09:42:11;;;;;;;4.73;1.60;;;;;;;;;;5028388;28;20930;-70
2023/07/06 09:44:37;;;;;;;1.50;1.50;;;;;;;;;;5028049;28;20431;-70
2023/07/06 09:47:09;;;;;;;2.20;2.10;;;;;;;;;;5029007;28;20451;-70
2023/07/06 09:49:39;;;;;;;1.70;1.60;;;;;;;;;;5028959;28;20609;-70
2023/07/06 09:52:06;;;;;;;2.07;1.97;;;;;;;;;;5028783;28;20471;-70
2023/07/06 09:54:38;;;;;;;1.23;1.23;;;;;;;;;;5043918;28;20443;-70
2023/07/06 09:57:17;;;;;;;2.03;1.50;;;;;;;;;;5027495;28;20431;-70
2023/07/06 09:59:45;;;;;;;2.63;2.63;;;;;;;;;;5030615;28;20489;-70
2023/07/06 10:02:23;;;;;;;1.77;1.77;;;;;;;;;;5032184;28;20412;-70
2023/07/06 10:04:59;;;;;;;2.20;1.77;;;;;;;;;;5032206;28;20415;-70
2023/07/06 10:07:31;;;;;;;3.03;1.93;;;;;;;;;;5031058;28;20986;-70
2023/07/06 10:10:13;;;;;;;1.60;1.60;;;;;;;;;;5031636;28;20435;-70
2023/07/06 10:12:58;;;;;;;2.23;2.20;;;;;;;;;;5047840;28;20576;-70
2023/07/06 10:15:33;;;;;;;1.30;1.30;;;;;;;;;;5045644;28;20454;-70
2023/07/06 10:18:16;;;;;;;1.50;1.43;;;;;;;;;;5031013;28;20461;-70
2023/07/06 10:20:42;;;;;;;2.33;2.20;;;;;;;;;;5032205;28;20470;-70
2023/07/06 10:23:09;;;;;;;2.30;2.20;;;;;;;;;;5031044;28;20459;-70
2023/07/06 10:25:38;;;;;;;1.53;1.43;;;;;;;;;;5031628;28;20431;-70
2023/07/06 10:28:17;;;;;;;5.10;2.17;;;;;;;;;;5031470;28;20522;-70
2023/07/06 10:30:45;;;;;;;1.67;1.67;;;;;;;;;;5031841;28;20427;-70
2023/07/06 10:33:17;;;;;;;2.67;2.10;;;;;;;;;;5030840;28;20455;-70
2023/07/06 10:35:45;;;;;;;1.70;1.70;;;;;;;;;;5031322;28;20443;-70
2023/07/06 10:38:11;;;;;;;2.53;2.43;;;;;;;;;;5031728;28;20461;-70
2023/07/06 10:40:37;;;;;;;1.73;1.73;;;;;;;;;;5043246;28;20543;-70
2023/07/06 10:43:13;;;;;;;1.93;1.83;;;;;;;;;;5030411;28;20431;-70
2023/07/06 10:45:42;;;;;;;1.57;1.57;;;;;;;;;;5030873;28;20450;-70
2023/07/06 10:48:28;;;;;;;2.57;1.80;;;;;;;;;;5030943;28;20438;-70
2023/07/06 10:51:15;;;;;;;2.63;2.20;;;;;;;;;;5030060;28;20546;-70
2023/07/06 10:53:42;;;;;;;1.70;1.70;;;;;;;;;;5030305;28;20439;-70
2023/07/06 10:56:12;;;;;;;9.27;2.30;;;;;;;;;;5031532;28;20435;-71
2023/07/06 10:58:49;;;;;;;2.43;2.33;;;;;;;;;;5030169;28;20439;-70
2023/07/06 11:01:17;;;;;;;2.50;2.30;;;;;;;;;;5029509;28;20443;-70
2023/07/06 11:03:43;;;;;;;1.93;1.83;;;;;;;;;;5029651;28;20412;-71
2023/07/06 11:06:35;;;;;;;9.40;1.90;;;;;;;;;;5031140;28;20471;-70
2023/07/06 11:09:08;;;;;;;2.30;2.20;;;;;;;;;;5029703;28;20488;-70
2023/07/06 11:11:54;;;;;;;2.00;1.90;;;;;;;;;;5030121;28;20415;-70
2023/07/06 11:14:23;;;;;;;2.20;2.10;;;;;;;;;;5025555;28;20430;-70
2023/07/06 11:16:55;;;;;;;1.80;1.70;;;;;;;;;;5028367;28;20577;-70
2023/07/06 11:19:24;;;;;;;10.23;2.13;;;;;;;;;;5028910;28;20520;-70
2023/07/06 11:21:52;;;;;;;4.60;2.30;;;;;;;;;;5028553;28;20954;-70
2023/07/06 11:24:21;;;;;;;1.87;1.87;;;;;;;;;;5029085;28;20420;-70
2023/07/06 11:26:54;;;;;;;3.67;1.80;;;;;;;;;;5028786;28;20801;-70
2023/07/06 11:29:21;;;;;;;1.80;1.70;;;;;;;;;;5029738;28;20430;-70
2023/07/06 11:31:50;;;;;;;2.90;2.80;;;;;;;;;;5028797;28;20470;-70
2023/07/06 11:34:35;;;;;;;2.10;2.10;;;;;;;;;;5029638;28;20913;-70
2023/07/06 11:37:04;;;;;;;2.53;2.10;;;;;;;;;;5028281;28;20446;-70
2023/07/06 11:39:41;;;;;;;2.00;1.90;;;;;;;;;;5029265;28;20483;-70
2023/07/06 11:42:18;;;;;;;2.50;2.30;;;;;;;;;;5028459;28;20419;-70
2023/07/06 11:44:49;;;;;;;1.80;1.70;;;;;;;;;;5027525;28;20423;-70
2023/07/06 11:47:18;;;;;;;2.10;2.00;;;;;;;;;;5028402;28;20447;-70
2023/07/06 11:49:59;;;;;;;1.53;1.50;;;;;;;;;;5029263;28;20462;-70
2023/07/06 11:52:26;;;;;;;3.60;2.40;;;;;;;;;;5028353;28;20852;-70
2023/07/06 11:55:05;;;;;;;2.30;2.20;;;;;;;;;;5028218;28;20435;-71
2023/07/06 11:57:42;;;;;;;2.17;1.97;;;;;;;;;;5026830;28;20469;-70
2023/07/06 12:00:22;;;;;;;3.50;2.10;;;;;;;;;;5027594;28;20490;-70
2023/07/06 12:02:57;;;;;;;1.67;1.67;;;;;;;;;;5027450;28;20497;-70
2023/07/06 12:05:37;;;;;;;1.77;1.77;;;;;;;;;;5019325;28;20443;-70
2023/07/06 12:08:09;;;;;;;1.77;1.77;;;;;;;;;;5027725;28;20518;-70
2023/07/06 12:10:36;;;;;;;4.30;1.70;;;;;;;;;;5028499;28;20435;-70
2023/07/06 12:13:05;;;;;;;2.10;2.00;;;;;;;;;;5019352;28;20435;-70
2023/07/06 12:15:31;;;;;;;1.97;1.87;;;;;;;;;;5025649;28;20439;-70
2023/07/06 12:17:57;;;;;;;6.33;2.50;;;;;;;;;;5024144;28;20490;-70
2023/07/06 12:20:26;;;;;;;2.07;1.97;;;;;;;;;;5037930;28;20847;-70
2023/07/06 12:22:53;;;;;;;2.00;1.90;;;;;;;;;;5027328;28;20977;-70
2023/07/06 12:25:20;;;;;;;2.27;2.17;;;;;;;;;;5027949;28;20431;-70
2023/07/06 12:27:46;;;;;;;2.03;1.90;;;;;;;;;;5028038;28;20476;-70
2023/07/06 12:30:14;;;;;;;1.50;1.40;;;;;;;;;;5026930;28;20446;-70
2023/07/06 12:32:43;;;;;;;1.70;1.70;;;;;;;;;;5042739;28;20462;-70
2023/07/06 12:35:11;;;;;;;2.20;2.10;;;;;;;;;;5027921;28;20542;-70
2023/07/06 12:37:41;;;;;;;1.73;1.73;;;;;;;;;;5042272;28;20423;-70
2023/07/06 12:40:19;;;;;;;2.20;1.60;;;;;;;;;;5027946;28;21070;-70
2023/07/06 12:42:45;;;;;;;1.90;1.90;;;;;;;;;;5025451;28;21015;-70
2023/07/06 12:45:21;;;;;;;3.03;2.10;;;;;;;;;;5027046;28;20442;-70
2023/07/06 12:47:55;;;;;;;3.23;1.60;;;;;;;;;;5026756;28;21173;-70
2023/07/06 12:50:26;;;;;;;2.53;2.37;;;;;;;;;;5026371;28;20568;-70
2023/07/06 12:53:02;;;;;;;1.90;1.80;;;;;;;;;;5026816;28;20438;-70
2023/07/06 12:55:31;;;;;;;3.20;1.90;;;;;;;;;;5028434;28;20429;-70
2023/07/06 12:57:57;;;;;;;1.63;1.60;;;;;;;;;;5027573;28;20795;-70
2023/07/06 13:00:24;;;;;;;3.10;1.90;;;;;;;;;;5028275;28;20471;-70
2023/07/06 13:02:58;;;;;;;4.83;2.13;;;;;;;;;;5027815;28;20430;-70
2023/07/06 13:05:26;;;;;;;1.70;1.60;;;;;;;;;;5027092;28;20490;-70
2023/07/06 13:07:52;;;;;;;7.20;1.57;;;;;;;;;;5027293;28;20834;-70
2023/07/06 13:10:26;;;;;;;2.07;1.97;;;;;;;;;;5028051;28;20443;-70
2023/07/06 13:12:54;;;;;;;7.50;2.53;;;;;;;;;;5027011;28;20438;-70
2023/07/06 13:15:23;;;;;;;2.67;1.57;;;;;;;;;;5027425;28;20485;-70
2023/07/06 13:17:50;;;;;;;9.27;2.20;;;;;;;;;;5027899;28;20861;-70
2023/07/06 13:20:16;;;;;;;6.30;2.17;;;;;;;;;;5027258;28;21053;-70
2023/07/06 13:22:42;;;;;;;1.90;1.80;;;;;;;;;;5026832;28;20465;-70
2023/07/06 13:25:18;;;;;;;2.07;1.97;;;;;;;;;;5028063;28;20435;-70
2023/07/06 13:27:47;;;;;;;2.23;2.03;;;;;;;;;;5028022;28;20984;-70
2023/07/06 13:30:14;;;;;;;1.80;1.70;;;;;;;;;;5028051;28;20427;-70
2023/07/06 13:32:41;;;;;;;1.97;1.80;;;;;;;;;;5027403;28;20793;-70
2023/07/06 13:35:09;;;;;;;2.47;2.37;;;;;;;;;;5030698;28;20434;-70
2023/07/06 13:37:40;;;;;;;6.80;1.90;;;;;;;;;;5046222;28;20978;-70
2023/07/06 13:40:07;;;;;;;8.73;1.77;;;;;;;;;;5031290;28;20478;-70
2023/07/06 13:42:33;;;;;;;1.97;1.93;;;;;;;;;;5031223;28;20454;-70
2023/07/06 13:45:00;;;;;;;1.77;1.67;;;;;;;;;;5031194;28;20477;-70
2023/07/06 13:47:28;;;;;;;4.23;2.20;;;;;;;;;;5031536;28;20419;-70
2023/07/06 13:49:56;;;;;;;2.77;2.67;;;;;;;;;;5031212;28;20463;-70
2023/07/06 13:52:22;;;;;;;9.20;1.87;;;;;;;;;;5030840;28;20411;-70
2023/07/06 13:54:48;;;;;;;3.20;1.90;;;;;;;;;;5030364;28;20534;-70
2023/07/06 13:57:14;;;;;;;1.83;1.83;;;;;;;;;;5031574;28;20603;-70
2023/07/06 13:59:40;;;;;;;1.70;1.70;;;;;;;;;;5030724;28;20486;-70
2023/07/06 14:02:06;;;;;;;2.30;1.50;;;;;;;;;;5031023;28;20467;-70
2023/07/06 14:04:33;;;;;;;2.07;1.47;;;;;;;;;;5030672;28;20921;-70
2023/07/06 14:07:00;;;;;;;1.20;1.20;;;;;;;;;;5031814;28;20489;-70
2023/07/06 14:09:26;;;;;;;5.47;3.03;;;;;;;;;;5032523;28;20488;-70
2023/07/06 14:11:52;;;;;;;4.60;1.63;;;;;;;;;;5032263;28;20411;-70
2023/07/06 14:14:18;;;;;;;3.80;2.20;;;;;;;;;;5032168;28;21775;-70
2023/07/06 14:16:45;;;;;;;2.43;2.27;;;;;;;;;;5032181;28;20510;-70
2023/07/06 14:19:11;;;;;;;1.87;1.80;;;;;;;;;;5031791;28;20554;-70
2023/07/06 14:21:37;;;;;;;1.60;1.60;;;;;;;;;;5031901;28;20457;-70
2023/07/06 14:24:04;;;;;;;1.67;1.57;;;;;;;;;;5031962;28;20459;-70
2023/07/06 14:26:30;;;;;;;4.97;1.53;;;;;;;;;;5032180;28;20945;-70
2023/07/06 14:28:56;;;;;;;1.70;1.60;;;;;;;;;;5032003;28;20467;-70
2023/07/06 14:31:23;;;;;;;6.47;2.70;;;;;;;;;;5031031;28;20777;-70
2023/07/06 14:33:49;;;;;;;1.70;1.70;;;;;;;;;;5047097;28;20431;-70
2023/07/06 14:36:15;;;;;;;6.13;2.27;;;;;;;;;;5031786;28;20420;-70
2023/07/06 14:38:41;;;;;;;2.53;2.43;;;;;;;;;;5032034;28;20450;-70
2023/07/06 14:41:08;;;;;;;4.60;1.43;;;;;;;;;;5047088;28;20444;-70
2023/07/06 14:43:34;;;;;;;11.13;1.97;;;;;;;;;;5031348;28;20448;-70
2023/07/06 14:46:04;;;;;;;1.97;1.97;;;;;;;;;;5031184;28;20910;-70
2023/07/06 14:48:30;;;;;;;1.87;1.87;;;;;;;;;;5031958;28;20870;-70
2023/07/06 14:51:06;;;;;;;3.40;1.67;;;;;;;;;;5031786;28;20944;-70